Time;durP1;ratioP1;P1;durP2;ratioP2;P2;SDS_P1;SDS_P2;PMS_P1;PMS_P2;Temp;Humidity;BMP_temperature;BMP_pressure;BME280_temperature;BME280_humidity;BME280_pressure;Samples;Min_cycle;Max_cycle;Signal;HPM_P1;HPM_P2
2023/06/13 00:00:47;;;;;;;8.90;6.22;;;;;;;26.42;28.72;101521.72;5048851;28;20431;-50
2023/06/13 00:03:13;;;;;;;10.55;6.60;;;;;;;26.03;28.76;101521.53;5049110;28;20495;-46
2023/06/13 00:05:46;;;;;;;8.00;6.43;;;;;;;26.27;28.83;101519.69;5047995;28;20104;-47
2023/06/13 00:08:17;;;;;;;8.98;6.80;;;;;;;26.35;28.97;101525.56;5048687;28;20399;-47
2023/06/13 00:10:52;;;;;;;10.65;6.88;;;;;;;26.14;29.38;101526.44;5048405;28;20552;-47
2023/06/13 00:13:18;;;;;;;9.80;6.90;;;;;;;26.06;29.79;101524.06;5048982;28;20045;-48
2023/06/13 00:15:58;;;;;;;8.85;6.50;;;;;;;25.97;30.12;101518.25;5048225;28;20090;-49
2023/06/13 00:18:25;;;;;;;13.55;6.57;;;;;;;25.93;30.46;101524.63;5049072;28;20561;-45
2023/06/13 00:20:54;;;;;;;9.32;6.43;;;;;;;25.91;30.66;101518.50;5048740;28;20495;-47
2023/06/13 00:23:20;;;;;;;10.32;6.40;;;;;;;25.79;31.02;101519.84;5051112;28;20431;-48
2023/06/13 00:25:46;;;;;;;13.23;6.93;;;;;;;25.65;31.05;101519.50;5051875;28;20103;-46
2023/06/13 00:28:11;;;;;;;7.90;6.53;;;;;;;25.58;31.58;101515.34;5052704;28;20039;-50
2023/06/13 00:30:36;;;;;;;10.07;6.28;;;;;;;25.42;31.77;101517.69;5052917;28;20519;-49
2023/06/13 00:33:04;;;;;;;7.55;6.28;;;;;;;25.42;31.97;101520.38;5052430;28;20040;-47
2023/06/13 00:35:30;;;;;;;10.25;6.40;;;;;;;25.26;32.28;101514.72;5052391;28;20112;-48
2023/06/13 00:37:57;;;;;;;9.13;6.60;;;;;;;25.22;32.10;101526.44;5052230;28;20041;-45
2023/06/13 00:40:23;;;;;;;9.15;6.57;;;;;;;25.07;32.66;101515.47;5053067;28;20464;-45
2023/06/13 00:42:52;;;;;;;10.77;6.78;;;;;;;25.15;32.15;101514.25;5052611;28;20060;-47
2023/06/13 00:45:23;;;;;;;11.00;6.60;;;;;;;25.04;32.21;101517.31;5051726;28;20029;-54
2023/06/13 00:48:01;;;;;;;8.98;6.50;;;;;;;25.03;32.38;101510.22;5051347;28;20037;-44
2023/06/13 00:50:30;;;;;;;11.07;6.43;;;;;;;24.96;32.94;101511.38;5051708;28;20040;-44
2023/06/13 00:52:58;;;;;;;8.57;6.35;;;;;;;24.96;32.86;101510.50;5052626;28;20037;-47
2023/06/13 00:55:25;;;;;;;9.50;6.75;;;;;;;24.91;32.92;101513.34;5053307;28;20101;-52
2023/06/13 00:57:55;;;;;;;10.60;6.25;;;;;;;24.73;33.24;101508.63;5051906;28;20040;-48
2023/06/13 01:00:22;;;;;;;10.48;6.70;;;;;;;24.63;32.91;101510.75;5052133;28;20032;-50
2023/06/13 01:02:47;;;;;;;11.32;6.72;;;;;;;24.68;32.81;101499.94;5051848;28;20064;-49
2023/06/13 01:05:13;;;;;;;10.02;6.43;;;;;;;24.71;33.14;101505.13;5051551;28;20067;-48
2023/06/13 01:07:40;;;;;;;8.05;6.07;;;;;;;24.65;33.34;101506.22;5050690;28;20032;-49
2023/06/13 01:10:07;;;;;;;8.43;6.40;;;;;;;24.59;33.48;101506.44;5052251;28;20033;-49
2023/06/13 01:12:40;;;;;;;10.20;6.60;;;;;;;24.54;33.69;101513.72;5051682;28;20413;-49
2023/06/13 01:15:10;;;;;;;8.17;6.53;;;;;;;24.48;33.81;101507.72;5051510;28;20170;-48
2023/06/13 01:17:57;;;;;;;9.45;6.43;;;;;;;24.35;33.84;101499.28;5052040;28;20037;-46
2023/06/13 01:20:26;;;;;;;10.82;6.95;;;;;;;24.24;34.33;101496.09;5051894;28;20048;-46
2023/06/13 01:23:15;;;;;;;13.98;6.45;;;;;;;24.23;34.09;101508.56;5051419;28;20033;-48
2023/06/13 01:26:00;;;;;;;13.88;7.00;;;;;;;24.18;34.08;101504.28;5051057;28;20068;-46
2023/06/13 01:28:29;;;;;;;8.32;6.55;;;;;;;24.07;34.21;101503.75;5051705;28;20124;-47
2023/06/13 01:30:55;;;;;;;15.88;7.00;;;;;;;24.06;34.04;101496.69;5051355;28;20088;-46
2023/06/13 01:33:22;;;;;;;9.80;6.63;;;;;;;24.00;34.64;101503.06;5051504;28;20044;-47
2023/06/13 01:35:48;;;;;;;10.25;7.15;;;;;;;23.84;34.44;101501.84;5050351;28;20091;-50
2023/06/13 01:38:13;;;;;;;10.30;6.60;;;;;;;23.95;34.27;101501.47;5051756;28;20037;-49
2023/06/13 01:40:39;;;;;;;9.30;6.53;;;;;;;23.91;34.24;101502.50;5051885;28;20036;-48
2023/06/13 01:43:04;;;;;;;8.02;6.40;;;;;;;23.93;34.41;101506.84;5051140;28;20032;-55
2023/06/13 01:45:30;;;;;;;9.20;6.32;;;;;;;23.91;34.33;101502.50;5050935;28;20044;-46
2023/06/13 01:48:06;;;;;;;12.80;6.72;;;;;;;23.49;35.29;101500.22;5051198;28;20177;-45
2023/06/13 01:50:43;;;;;;;13.10;7.00;;;;;;;23.74;34.81;101503.03;5051761;28;20079;-46
2023/06/13 01:53:40;;;;;;;10.65;6.53;;;;;;;23.73;35.04;101498.59;5051347;28;20060;-51
2023/06/13 01:56:13;;;;;;;11.25;6.30;;;;;;;23.70;34.93;101493.41;5043194;28;20043;-46
2023/06/13 01:58:57;;;;;;;10.17;6.90;;;;;;;23.60;34.93;101489.28;5050750;28;20044;-55
2023/06/13 02:01:25;;;;;;;;;;;;;;;23.60;35.10;101497.28;5051785;28;20777;-45
2023/06/13 02:03:51;;;;;;;9.55;6.40;;;;;;;23.57;35.21;101495.56;5050489;28;19913;-51
2023/06/13 02:06:17;;;;;;;10.65;6.60;;;;;;;23.51;35.03;101501.06;5050918;28;20083;-48
2023/06/13 02:08:44;;;;;;;11.32;6.88;;;;;;;23.34;35.15;101503.34;5050550;28;20029;-52
2023/06/13 02:11:10;;;;;;;7.50;6.18;;;;;;;23.31;35.36;101496.28;5051024;28;20039;-49
2023/06/13 02:13:35;;;;;;;9.30;6.43;;;;;;;23.27;35.01;101499.09;5051039;28;20124;-51
2023/06/13 02:16:00;;;;;;;12.23;6.32;;;;;;;23.34;34.70;101498.88;5049834;28;20040;-45
2023/06/13 02:18:27;;;;;;;9.45;6.25;;;;;;;23.31;35.03;101493.63;5050669;28;20048;-50
2023/06/13 02:20:53;;;;;;;9.82;6.55;;;;;;;23.33;35.11;101494.47;5050437;28;20080;-46
2023/06/13 02:23:18;;;;;;;10.48;6.28;;;;;;;23.32;35.23;101492.72;5050828;28;20039;-46
2023/06/13 02:25:46;;;;;;;7.82;6.10;;;;;;;23.14;35.32;101487.06;5050105;28;20072;-52
2023/06/13 02:28:11;;;;;;;8.73;6.28;;;;;;;23.18;35.46;101494.91;5050674;28;20033;-46
2023/06/13 02:30:37;;;;;;;9.80;6.55;;;;;;;23.17;35.50;101490.53;5050872;28;20455;-47
2023/06/13 02:33:03;;;;;;;9.50;7.13;;;;;;;22.78;35.85;101487.19;5049991;28;20166;-49
2023/06/13 02:35:28;;;;;;;11.55;6.32;;;;;;;23.08;35.33;101496.09;5050009;28;20036;-49
2023/06/13 02:37:53;;;;;;;9.95;6.22;;;;;;;23.01;35.29;101490.06;5050095;28;20063;-45
2023/06/13 02:40:22;;;;;;;12.02;6.90;;;;;;;23.12;35.20;101487.09;5050544;28;20036;-49
2023/06/13 02:42:49;;;;;;;10.57;6.30;;;;;;;23.14;35.71;101495.03;5050087;28;20511;-47
2023/06/13 02:45:16;;;;;;;12.07;6.38;;;;;;;23.04;35.73;101489.13;5049220;28;20086;-43
2023/06/13 02:47:41;;;;;;;8.43;6.30;;;;;;;23.02;35.54;101498.94;5049427;28;20037;-49
2023/06/13 02:50:07;;;;;;;12.43;6.78;;;;;;;23.01;35.85;101499.84;5049883;28;20491;-47
2023/06/13 02:52:32;;;;;;;8.75;6.15;;;;;;;22.97;35.25;101495.53;5049652;28;20116;-46
2023/06/13 02:54:57;;;;;;;7.97;6.50;;;;;;;22.95;35.62;101500.88;5049447;28;20132;-44
2023/06/13 02:57:22;;;;;;;9.60;6.40;;;;;;;22.92;36.25;101502.78;5050203;28;20033;-46
2023/06/13 02:59:48;;;;;;;9.95;6.63;;;;;;;22.81;36.18;101503.03;5049546;28;20029;-45
2023/06/13 03:02:16;;;;;;;9.05;6.13;;;;;;;22.86;36.31;101505.59;5050385;28;20116;-52
2023/06/13 03:04:41;;;;;;;13.18;6.80;;;;;;;22.75;36.63;101503.22;5049068;28;20040;-47
2023/06/13 03:07:10;;;;;;;10.85;6.68;;;;;;;22.68;37.01;101506.94;5050085;28;20025;-48
2023/06/13 03:09:35;;;;;;;10.02;6.53;;;;;;;22.62;36.74;101507.09;5049784;28;20037;-46
2023/06/13 03:12:02;;;;;;;9.65;6.40;;;;;;;22.58;36.81;101516.91;5049444;28;20051;-45
2023/06/13 03:14:28;;;;;;;11.23;6.70;;;;;;;22.64;37.26;101521.19;5049714;28;20384;-47
2023/06/13 03:16:55;;;;;;;11.38;6.68;;;;;;;22.19;37.38;101523.25;5050041;28;20099;-49
2023/06/13 03:19:21;;;;;;;12.05;6.53;;;;;;;22.29;37.65;101522.09;5033241;28;20240;-44
2023/06/13 03:21:46;;;;;;;12.77;6.80;;;;;;;22.25;37.63;101516.00;5050429;28;20175;-45
2023/06/13 03:24:13;;;;;;;12.38;6.75;;;;;;;22.45;37.15;101522.56;5050221;28;20039;-44
2023/06/13 03:26:39;;;;;;;12.65;6.75;;;;;;;22.47;37.40;101516.31;5049786;28;20407;-47
2023/06/13 03:29:06;;;;;;;12.50;7.25;;;;;;;22.51;37.39;101522.41;5050143;28;20452;-46
2023/06/13 03:31:31;;;;;;;11.75;6.68;;;;;;;22.31;38.08;101520.28;5050200;28;20044;-48
2023/06/13 03:33:56;;;;;;;10.27;7.10;;;;;;;22.30;37.91;101521.19;5050662;28;20037;-45
2023/06/13 03:36:22;;;;;;;10.95;6.93;;;;;;;22.33;37.72;101512.25;5051010;28;20406;-46
2023/06/13 03:38:47;;;;;;;10.52;6.47;;;;;;;22.36;37.76;101517.50;5050492;28;20086;-43
2023/06/13 03:41:13;;;;;;;8.25;6.53;;;;;;;22.25;38.17;101512.47;5050893;28;20518;-51
2023/06/13 03:43:38;;;;;;;10.18;7.00;;;;;;;22.19;38.43;101520.59;5051700;28;20033;-44
2023/06/13 03:46:03;;;;;;;10.77;7.80;;;;;;;21.99;38.32;101521.06;5050614;28;20056;-47
2023/06/13 03:48:29;;;;;;;12.55;6.97;;;;;;;22.03;38.47;101512.09;5050513;28;20040;-47
2023/06/13 03:50:54;;;;;;;9.90;6.68;;;;;;;22.15;38.72;101510.94;5049486;28;20033;-46
2023/06/13 03:53:19;;;;;;;11.02;6.68;;;;;;;22.24;38.36;101516.03;5051268;28;20330;-50
2023/06/13 03:55:45;;;;;;;11.45;6.90;;;;;;;22.28;38.05;101515.03;5050877;28;20118;-45
2023/06/13 03:58:11;;;;;;;11.30;7.38;;;;;;;22.06;38.90;101506.72;5051089;28;20571;-45
2023/06/13 04:00:39;;;;;;;12.05;6.85;;;;;;;22.22;38.32;101516.06;5051878;28;20045;-44
2023/06/13 04:03:05;;;;;;;11.73;6.88;;;;;;;22.20;38.38;101514.38;5050775;28;20510;-46
2023/06/13 04:05:31;;;;;;;16.17;7.53;;;;;;;21.99;38.46;101513.09;5048875;28;20037;-49
2023/06/13 04:07:56;;;;;;;10.23;6.95;;;;;;;22.32;38.06;101516.72;5048576;28;20044;-46
2023/06/13 04:10:22;;;;;;;10.30;7.30;;;;;;;22.18;37.47;101517.06;5049051;28;20033;-49
2023/06/13 04:12:47;;;;;;;9.65;6.90;;;;;;;22.10;37.38;101524.31;5048639;28;20128;-47
2023/06/13 04:15:13;;;;;;;10.07;6.88;;;;;;;22.31;37.25;101522.06;5048430;28;20051;-48
2023/06/13 04:17:40;;;;;;;10.07;7.30;;;;;;;22.42;36.73;101520.00;5048496;28;20495;-52
2023/06/13 04:20:05;;;;;;;10.80;7.00;;;;;;;22.48;37.23;101526.03;5048553;28;20044;-49
2023/06/13 04:22:35;;;;;;;9.55;6.85;;;;;;;22.46;36.80;101521.66;5049091;28;20037;-50
2023/06/13 04:25:01;;;;;;;13.10;6.90;;;;;;;22.38;37.26;101527.19;5047863;28;20442;-52
2023/06/13 04:27:29;;;;;;;10.45;6.93;;;;;;;22.54;36.89;101530.34;5048695;28;20044;-47
2023/06/13 04:29:56;;;;;;;13.38;6.90;;;;;;;22.73;36.80;101522.78;5048398;28;20043;-46
2023/06/13 04:32:23;;;;;;;14.13;6.85;;;;;;;22.64;36.43;101516.75;5049024;28;20037;-49
2023/06/13 04:34:52;;;;;;;9.98;7.10;;;;;;;22.62;36.47;101518.59;5048233;28;20040;-46
2023/06/13 04:37:25;;;;;;;12.30;6.55;;;;;;;22.87;36.79;101524.16;5048883;28;20503;-47
2023/06/13 04:39:55;;;;;;;11.73;6.43;;;;;;;22.71;37.44;101521.91;5049700;28;20450;-45
2023/06/13 04:42:30;;;;;;;14.93;6.45;;;;;;;22.86;37.10;101522.44;5050740;28;20029;-51
2023/06/13 04:44:57;;;;;;;9.80;6.70;;;;;;;22.76;37.00;101528.88;5049088;28;20037;-46
2023/06/13 04:47:24;;;;;;;9.82;6.70;;;;;;;22.82;36.71;101530.50;5049083;28;20028;-50
2023/06/13 04:49:58;;;;;;;10.85;6.70;;;;;;;23.12;36.69;101526.13;5048321;28;20067;-46
2023/06/13 04:52:27;;;;;;;10.73;6.70;;;;;;;23.13;36.68;101525.22;5048818;28;20037;-48
2023/06/13 04:54:55;;;;;;;10.30;7.45;;;;;;;23.22;36.07;101533.81;5047807;28;20091;-50
2023/06/13 04:57:21;;;;;;;13.43;7.13;;;;;;;23.37;36.04;101529.84;5048432;28;20636;-47
2023/06/13 04:59:47;;;;;;;9.77;6.68;;;;;;;23.47;36.30;101535.81;5047893;28;20033;-51
2023/06/13 05:02:12;;;;;;;12.98;7.20;;;;;;;23.55;36.31;101533.78;5048663;28;20087;-46
2023/06/13 05:04:38;;;;;;;14.70;6.78;;;;;;;23.58;36.18;101539.03;5030444;28;20040;-46
2023/06/13 05:07:06;;;;;;;11.95;6.95;;;;;;;23.58;35.98;101536.38;5030417;28;20029;-49
2023/06/13 05:09:31;;;;;;;11.07;6.65;;;;;;;23.74;35.91;101546.50;5050711;28;20033;-48
2023/06/13 05:11:57;;;;;;;12.60;7.18;;;;;;;23.99;35.15;101548.41;5051898;28;20044;-49
2023/06/13 05:14:22;;;;;;;10.18;6.75;;;;;;;24.74;34.25;101547.72;5051421;28;20120;-46
2023/06/13 05:16:47;;;;;;;12.57;6.55;;;;;;;26.16;31.59;101545.97;5051514;28;20033;-44
2023/06/13 05:19:13;;;;;;;11.45;6.35;;;;;;;27.12;30.53;101541.91;5051625;28;20052;-47
2023/06/13 05:21:38;;;;;;;12.95;6.63;;;;;;;28.67;28.34;101552.28;5034276;28;20090;-52
2023/06/13 05:24:04;;;;;;;10.32;6.00;;;;;;;29.84;26.30;101546.00;5051659;28;20082;-49
2023/06/13 05:26:29;;;;;;;12.18;6.75;;;;;;;30.47;24.22;101556.72;5051629;28;20037;-45
2023/06/13 05:28:56;;;;;;;8.57;6.22;;;;;;;30.79;24.39;101562.06;5051450;28;20040;-49
2023/06/13 05:31:22;;;;;;;9.07;6.32;;;;;;;31.48;23.13;101548.78;5052119;28;20033;-50
2023/06/13 05:33:47;;;;;;;11.65;6.05;;;;;;;31.14;23.70;101551.84;5051213;28;20111;-49
2023/06/13 05:36:13;;;;;;;7.18;5.70;;;;;;;31.29;23.59;101551.75;5051128;28;20048;-48
2023/06/13 05:38:40;;;;;;;8.85;6.18;;;;;;;31.77;22.81;101558.63;5051539;28;20052;-53
2023/06/13 05:41:05;;;;;;;9.15;5.60;;;;;;;32.21;22.65;101558.41;5051476;28;20546;-48
2023/06/13 05:43:30;;;;;;;10.98;5.93;;;;;;;32.84;21.86;101559.59;5051802;28;20166;-53
2023/06/13 05:45:57;;;;;;;10.93;5.82;;;;;;;33.30;21.07;101557.28;5050373;28;20082;-44
2023/06/13 05:48:22;;;;;;;10.77;5.97;;;;;;;33.17;20.91;101559.97;5051296;28;20507;-49
2023/06/13 05:50:47;;;;;;;11.07;6.30;;;;;;;33.00;20.51;101561.13;5050790;28;20048;-50
2023/06/13 05:53:13;;;;;;;11.43;5.80;;;;;;;33.60;20.27;101559.63;5049921;28;20406;-47
2023/06/13 05:55:38;;;;;;;10.23;5.63;;;;;;;33.38;19.95;101563.00;5050681;28;20479;-46
2023/06/13 05:58:04;;;;;;;10.52;5.88;;;;;;;33.79;20.00;101569.00;5050863;28;20033;-47
2023/06/13 06:00:29;;;;;;;13.90;5.38;;;;;;;32.74;21.29;101564.78;5051076;28;20106;-50
2023/06/13 06:02:55;;;;;;;10.98;6.00;;;;;;;33.00;21.14;101565.66;5050808;28;20041;-47
2023/06/13 06:05:21;;;;;;;8.00;5.40;;;;;;;34.47;20.05;101571.16;5050393;28;20052;-48
2023/06/13 06:07:46;;;;;;;8.93;5.65;;;;;;;33.90;19.93;101570.09;5050328;28;20037;-48
2023/06/13 06:10:13;;;;;;;8.07;5.80;;;;;;;33.92;20.25;101573.53;5049922;28;20036;-48
2023/06/13 06:12:39;;;;;;;10.43;5.78;;;;;;;33.88;19.43;101572.91;5050663;28;20052;-51
2023/06/13 06:15:05;;;;;;;7.57;5.60;;;;;;;34.15;19.66;101570.88;5049382;28;20036;-49
2023/06/13 06:17:30;;;;;;;11.85;6.00;;;;;;;33.75;19.99;101572.94;5050769;28;20029;-47
2023/06/13 06:19:56;;;;;;;8.18;5.60;;;;;;;34.59;18.76;101581.06;5049346;28;20526;-49
2023/06/13 06:22:21;;;;;;;7.68;5.53;;;;;;;35.06;18.17;101582.00;5050730;28;20040;-45
2023/06/13 06:24:47;;;;;;;9.88;6.00;;;;;;;33.78;19.83;101579.97;5049747;28;20055;-49
2023/06/13 06:27:12;;;;;;;13.30;5.30;;;;;;;34.13;19.88;101580.94;5050803;28;20028;-47
2023/06/13 06:29:39;;;;;;;11.32;5.90;;;;;;;33.70;19.61;101579.66;5050875;28;20064;-46
2023/06/13 06:32:05;;;;;;;10.32;5.82;;;;;;;34.33;19.06;101574.06;5050308;28;20037;-48
2023/06/13 06:34:30;;;;;;;8.45;5.78;;;;;;;33.59;19.81;101579.53;5050434;28;20071;-52
2023/06/13 06:36:56;;;;;;;11.02;5.38;;;;;;;34.74;19.26;101583.63;5050053;28;20049;-46
2023/06/13 06:39:22;;;;;;;11.57;5.53;;;;;;;34.49;19.65;101577.34;5050662;28;20071;-51
2023/06/13 06:41:47;;;;;;;6.40;5.00;;;;;;;34.44;19.80;101582.25;5050052;28;20029;-51
2023/06/13 06:44:13;;;;;;;8.23;5.38;;;;;;;35.00;18.58;101574.34;5050711;28;20039;-50
2023/06/13 06:46:38;;;;;;;13.98;5.47;;;;;;;35.44;18.27;101576.25;5049975;28;20056;-47
2023/06/13 06:49:03;;;;;;;7.50;4.95;;;;;;;35.54;18.93;101577.25;5049704;28;20045;-50
2023/06/13 06:51:29;;;;;;;7.78;4.97;;;;;;;35.98;18.85;101573.69;5050526;28;20041;-47
2023/06/13 06:53:56;;;;;;;7.65;4.85;;;;;;;36.21;17.95;101579.06;5049676;28;20040;-48
2023/06/13 06:56:21;;;;;;;5.57;4.82;;;;;;;36.28;17.59;101567.59;5049973;28;20033;-48
2023/06/13 06:58:47;;;;;;;9.00;5.03;;;;;;;36.11;18.42;101563.50;5049624;28;20492;-50
2023/06/13 07:01:14;;;;;;;10.05;4.95;;;;;;;35.67;18.59;101561.72;5050470;28;20036;-47
2023/06/13 07:03:40;;;;;;;8.68;5.40;;;;;;;36.27;18.13;101568.56;5049737;28;20411;-48
2023/06/13 07:06:05;;;;;;;9.82;5.20;;;;;;;36.89;17.19;101563.25;5049710;28;20025;-46
2023/06/13 07:08:32;;;;;;;8.30;4.70;;;;;;;36.42;17.69;101559.13;5049812;28;20123;-51
2023/06/13 07:10:57;;;;;;;6.20;4.72;;;;;;;37.02;16.75;101564.91;5049513;28;20119;-51
2023/06/13 07:13:22;;;;;;;9.32;4.72;;;;;;;36.63;17.22;101564.59;5049956;28;20515;-51
2023/06/13 07:15:48;;;;;;;6.82;4.90;;;;;;;36.87;17.66;101576.09;5049065;28;20048;-48
2023/06/13 07:18:13;;;;;;;8.60;4.80;;;;;;;35.83;18.26;101574.94;5049749;28;20021;-49
2023/06/13 07:20:38;;;;;;;6.88;4.63;;;;;;;35.95;17.63;101570.34;5049716;28;20051;-51
2023/06/13 07:23:04;;;;;;;6.32;4.70;;;;;;;36.32;17.15;101569.03;5031918;28;20044;-48
2023/06/13 07:25:30;;;;;;;9.90;4.90;;;;;;;36.79;17.44;101565.03;5049100;28;20057;-47
2023/06/13 07:27:55;;;;;;;6.50;4.30;;;;;;;36.95;16.84;101568.16;5049180;28;20039;-50
2023/06/13 07:30:21;;;;;;;10.65;4.70;;;;;;;36.83;17.82;101568.34;5049514;28;20465;-50
2023/06/13 07:32:46;;;;;;;11.30;5.13;;;;;;;36.24;17.64;101573.38;5031039;28;20049;-50
2023/06/13 07:35:14;;;;;;;7.95;4.70;;;;;;;36.91;17.13;101580.25;5049198;28;20048;-51
2023/06/13 07:37:40;;;;;;;10.02;4.70;;;;;;;35.89;18.13;101576.28;5049222;28;20037;-52
2023/06/13 07:40:08;;;;;;;8.70;4.70;;;;;;;36.68;18.17;101575.09;5049542;28;20082;-48
2023/06/13 07:42:33;;;;;;;7.50;4.57;;;;;;;37.01;17.28;101577.63;5048159;28;20040;-45
2023/06/13 07:44:58;;;;;;;8.68;4.50;;;;;;;36.93;17.16;101574.72;5048091;28;20040;-47
2023/06/13 07:47:23;;;;;;;10.55;4.47;;;;;;;36.79;16.70;101578.59;5049524;28;20059;-49
2023/06/13 07:49:49;;;;;;;7.75;4.57;;;;;;;36.98;17.03;101578.75;5048897;28;20406;-46
2023/06/13 07:52:14;;;;;;;7.82;4.57;;;;;;;36.66;16.70;101580.66;5049433;28;20041;-53
2023/06/13 07:54:40;;;;;;;6.47;4.32;;;;;;;37.23;17.15;101576.63;5047333;28;20029;-50
2023/06/13 07:57:06;;;;;;;13.45;4.80;;;;;;;36.28;17.64;101574.88;5049198;28;20095;-44
2023/06/13 07:59:31;;;;;;;6.55;4.38;;;;;;;37.15;16.94;101574.59;5049306;28;20037;-50
2023/06/13 08:01:56;;;;;;;8.25;4.95;;;;;;;37.08;16.71;101567.09;5049147;28;20049;-48
2023/06/13 08:04:22;;;;;;;7.85;4.47;;;;;;;36.77;16.63;101558.88;5049252;28;20119;-44
2023/06/13 08:06:48;;;;;;;7.97;4.70;;;;;;;37.32;16.32;101562.25;5049060;28;20124;-45
2023/06/13 08:09:13;;;;;;;9.20;4.30;;;;;;;36.92;16.35;101572.97;5049605;28;20090;-50
2023/06/13 08:11:39;;;;;;;7.35;4.80;;;;;;;35.93;16.82;101561.44;5048914;28;20095;-52
2023/06/13 08:14:07;;;;;;;8.80;5.22;;;;;;;35.73;16.82;101560.41;5047815;28;20090;-46
2023/06/13 08:16:32;;;;;;;8.55;4.70;;;;;;;36.13;17.54;101572.41;5048509;28;20123;-47
2023/06/13 08:18:58;;;;;;;10.15;4.78;;;;;;;36.57;16.24;101565.09;5048256;28;20128;-48
2023/06/13 08:21:23;;;;;;;11.48;4.80;;;;;;;36.77;17.07;101560.72;5048951;28;20036;-47
2023/06/13 08:23:48;;;;;;;9.35;5.00;;;;;;;36.54;16.38;101570.78;5048505;28;20037;-48
2023/06/13 08:26:15;;;;;;;7.47;4.78;;;;;;;36.72;16.00;101560.28;5048859;28;20033;-52
2023/06/13 08:28:41;;;;;;;7.82;4.75;;;;;;;36.39;16.76;101572.09;5048214;28;20041;-52
2023/06/13 08:31:06;;;;;;;8.55;4.57;;;;;;;36.21;16.99;101568.22;5047615;28;20033;-48
2023/06/13 08:33:31;;;;;;;8.60;4.65;;;;;;;36.38;16.91;101565.81;5049231;28;20067;-51
2023/06/13 08:35:57;;;;;;;8.88;4.97;;;;;;;36.67;16.99;101570.63;5048025;28;20132;-48
2023/06/13 08:38:24;;;;;;;8.43;4.90;;;;;;;36.13;17.76;101564.25;5048926;28;20491;-51
2023/06/13 08:40:49;;;;;;;6.18;4.80;;;;;;;35.57;17.94;101573.44;5048739;28;20043;-47
2023/06/13 08:43:15;;;;;;;7.47;4.70;;;;;;;34.45;18.65;101565.03;5047572;28;20127;-46
2023/06/13 08:45:40;;;;;;;10.82;5.40;;;;;;;33.66;19.52;101567.31;5051814;28;20044;-52
2023/06/13 08:48:07;;;;;;;8.23;5.47;;;;;;;32.75;20.52;101561.13;5052628;28;20029;-51
2023/06/13 08:50:32;;;;;;;13.07;5.70;;;;;;;33.03;20.74;101552.81;5052702;28;20036;-49
2023/06/13 08:52:59;;;;;;;9.38;5.93;;;;;;;32.10;20.24;101543.88;5051890;28;20056;-49
2023/06/13 08:55:27;;;;;;;9.55;5.35;;;;;;;31.94;20.58;101553.97;5052399;28;20086;-46
2023/06/13 08:57:54;;;;;;;8.93;5.80;;;;;;;31.93;21.27;101547.69;5051141;28;20044;-47
2023/06/13 09:00:20;;;;;;;9.35;5.55;;;;;;;31.47;22.04;101548.91;5052683;28;20025;-48
2023/06/13 09:02:46;;;;;;;7.50;5.78;;;;;;;31.52;21.05;101538.69;5052034;28;20491;-48
2023/06/13 09:05:15;;;;;;;12.32;5.80;;;;;;;31.10;20.93;101536.84;5051776;28;20127;-51
2023/06/13 09:07:41;;;;;;;10.90;5.82;;;;;;;31.60;20.88;101530.97;5051671;28;20127;-45
2023/06/13 09:10:07;;;;;;;9.65;5.72;;;;;;;31.26;21.42;101527.72;5051334;28;20168;-49
2023/06/13 09:12:33;;;;;;;11.02;6.00;;;;;;;31.53;19.83;101529.63;5052642;28;20037;-46
2023/06/13 09:14:59;;;;;;;7.40;5.45;;;;;;;31.35;21.54;101529.81;5051327;28;20041;-48
2023/06/13 09:17:25;;;;;;;9.80;6.00;;;;;;;31.54;19.21;101526.81;5052665;28;20040;-49
2023/06/13 09:19:50;;;;;;;10.65;6.00;;;;;;;30.94;19.62;101526.09;5051240;28;20043;-47
2023/06/13 09:22:17;;;;;;;10.15;6.05;;;;;;;30.81;20.85;101528.69;5052563;28;20363;-51
2023/06/13 09:24:44;;;;;;;9.40;5.95;;;;;;;31.24;20.41;101529.63;5050907;28;20087;-47
2023/06/13 09:27:10;;;;;;;18.48;6.07;;;;;;;30.88;19.12;101524.66;5051813;28;20029;-45
2023/06/13 09:29:36;;;;;;;10.90;5.47;;;;;;;31.08;19.78;101536.06;5051809;28;20488;-48
2023/06/13 09:32:03;;;;;;;8.80;5.80;;;;;;;30.74;18.77;101530.00;5051187;28;20128;-49
2023/06/13 09:34:29;;;;;;;11.90;5.88;;;;;;;30.76;19.58;101536.19;5051305;28;20090;-48
2023/06/13 09:36:58;;;;;;;10.18;6.10;;;;;;;30.80;18.70;101526.09;5049482;28;20426;-48
2023/06/13 09:39:27;;;;;;;9.38;6.00;;;;;;;30.90;19.38;101529.97;5051308;28;20033;-48
2023/06/13 09:42:01;;;;;;;14.23;5.85;;;;;;;31.22;18.23;101536.97;5051263;28;20039;-48
2023/06/13 09:44:32;;;;;;;10.18;5.93;;;;;;;30.93;19.29;101530.63;5049290;28;20079;-50
2023/06/13 09:46:58;;;;;;;16.08;6.30;;;;;;;30.94;19.04;101535.06;5050954;28;20032;-52
2023/06/13 09:49:29;;;;;;;9.70;5.90;;;;;;;31.05;18.70;101531.72;5051429;28;20037;-47
2023/06/13 09:51:54;;;;;;;11.90;6.35;;;;;;;30.85;18.81;101516.78;5050887;28;20402;-50
2023/06/13 09:54:20;;;;;;;9.35;5.75;;;;;;;30.81;18.81;101530.50;5049452;28;20033;-49
2023/06/13 09:56:46;;;;;;;15.10;5.90;;;;;;;30.91;19.25;101520.94;5050675;28;20037;-48
2023/06/13 09:59:17;;;;;;;10.55;5.88;;;;;;;31.07;18.61;101515.47;5050870;28;20036;-50
2023/06/13 10:01:47;;;;;;;8.15;5.65;;;;;;;30.90;18.99;101509.28;5050605;28;20488;-47
2023/06/13 10:04:14;;;;;;;9.93;5.85;;;;;;;30.75;19.03;101510.22;5051147;28;20128;-45
2023/06/13 10:06:40;;;;;;;10.82;5.72;;;;;;;31.42;19.19;101516.81;5049955;28;20037;-49
2023/06/13 10:09:05;;;;;;;13.27;5.65;;;;;;;31.23;19.60;101525.19;5051611;28;20029;-46
2023/06/13 10:11:34;;;;;;;11.73;5.80;;;;;;;31.25;19.24;101515.22;5051334;28;20095;-45
2023/06/13 10:14:08;;;;;;;9.32;5.88;;;;;;;31.04;19.01;101520.09;5050614;28;20090;-44
2023/06/13 10:16:43;;;;;;;8.75;5.60;;;;;;;31.25;18.64;101517.91;5050579;28;20044;-44
2023/06/13 10:19:13;;;;;;;12.02;5.78;;;;;;;31.39;19.08;101517.03;5049160;28;20495;-49
2023/06/13 10:21:39;;;;;;;6.63;5.60;;;;;;;31.52;17.94;101512.59;5050872;28;20047;-48
2023/06/13 10:24:04;;;;;;;9.93;5.80;;;;;;;31.25;18.52;101503.56;5050553;28;20029;-49
2023/06/13 10:26:36;;;;;;;9.68;6.05;;;;;;;31.09;18.61;101511.75;5032319;28;20059;-47
2023/06/13 10:29:41;;;;;;;9.07;5.60;;;;;;;31.02;18.84;101503.16;5050034;28;20115;-50
2023/06/13 10:32:32;;;;;;;10.82;5.63;;;;;;;31.04;18.72;101495.00;5050411;28;20473;-48
2023/06/13 10:35:08;;;;;;;9.27;5.70;;;;;;;31.44;19.38;101506.81;5049532;28;20487;-49
2023/06/13 10:38:17;;;;;;;9.27;5.68;;;;;;;31.28;18.73;101506.94;5050300;28;20044;-49
2023/06/13 10:41:04;;;;;;;11.68;5.80;;;;;;;31.36;18.32;101507.31;5023058;28;20041;-48
2023/06/13 10:43:33;;;;;;;10.20;5.85;;;;;;;31.24;18.12;101489.22;5048857;28;20063;-47
2023/06/13 10:46:04;;;;;;;9.32;5.70;;;;;;;31.47;19.54;101487.78;5049351;28;20445;-46
2023/06/13 10:48:51;;;;;;;10.65;5.90;;;;;;;31.65;20.45;101485.75;5050118;28;20029;-52
2023/06/13 10:51:26;;;;;;;8.13;5.88;;;;;;;31.75;17.82;101492.25;5050259;28;20382;-46
2023/06/13 10:54:03;;;;;;;9.73;5.55;;;;;;;31.88;18.62;101490.50;5049464;28;20052;-47
2023/06/13 10:56:31;;;;;;;12.95;5.82;;;;;;;31.67;18.88;101476.59;5049709;28;20576;-47
2023/06/13 10:59:23;;;;;;;10.02;5.95;;;;;;;31.87;19.23;101477.13;5049642;28;20548;-49
2023/06/13 11:01:50;;;;;;;9.53;5.87;;;;;;;31.86;19.03;101478.94;5049165;28;20119;-50
2023/06/13 11:04:22;;;;;;;14.95;5.90;;;;;;;31.55;18.53;101484.56;5049921;28;20075;-47
2023/06/13 11:06:51;;;;;;;12.45;5.70;;;;;;;31.64;18.13;101482.19;5048905;28;20041;-49
2023/06/13 11:09:18;;;;;;;14.10;5.85;;;;;;;31.92;19.07;101480.34;5049779;28;20488;-53
2023/06/13 11:11:54;;;;;;;9.68;5.60;;;;;;;31.91;18.37;101490.28;5049028;28;20049;-48
2023/06/13 11:14:21;;;;;;;9.32;5.55;;;;;;;31.55;18.04;101488.13;5049488;28;20115;-51
2023/06/13 11:16:46;;;;;;;10.75;5.80;;;;;;;31.65;18.28;101483.94;5049469;28;20580;-47
2023/06/13 11:19:17;;;;;;;11.52;5.88;;;;;;;31.22;18.11;101466.94;5049562;28;20036;-47
2023/06/13 11:21:45;;;;;;;11.77;5.88;;;;;;;31.20;19.96;101484.13;5049514;28;20037;-47
2023/06/13 11:24:14;;;;;;;8.13;5.70;;;;;;;30.95;18.78;101474.88;5049971;28;20120;-49